Terminal Aerodrome Forecast
Issued by NWS Quad Cities IA IL

Home | Current Version | Previous Version | Text Only | Print | Product List | Glossary On
Versions: 1 2 3 4 5 6 7 8 9 10 11 12 13 14 15 16 17 18 19 20 21 22 23 24 25 26 27 28 29 30 31 32 33 34 35 36 37 38 39 40
469
FTUS43 KDVN 012323
TAFMLI
TAF
KMLI 012323Z 0200/0224 33007KT 2SM RA BR BKN009 OVC025
     FM020100 35008KT 4SM -RA BR OVC014
     FM020400 36007KT 6SM BR OVC015
     FM021100 03008KT P6SM BKN025
     FM021500 05008KT P6SM SCT030 OVC050=

USA.gov is the U.S. government's official web portal to all federal, state and local government web resources and services.